createdAt,value
2023-05-05T00:01:01.039Z,15.00
2023-05-05T00:03:29.670Z,15.00
2023-05-05T00:05:56.783Z,15.00
2023-05-05T00:08:23.843Z,15.00
2023-05-05T00:10:53.711Z,14.90
2023-05-05T00:13:21.206Z,14.90
2023-05-05T00:15:50.622Z,14.90
2023-05-05T00:18:18.518Z,14.90
2023-05-05T00:20:47.202Z,14.90
2023-05-05T00:23:15.349Z,14.90
2023-05-05T00:25:42.165Z,14.90
2023-05-05T00:30:37.321Z,14.80
2023-05-05T00:33:04.356Z,14.80
2023-05-05T00:35:31.267Z,14.90
2023-05-05T00:37:58.251Z,14.80
2023-05-05T00:40:25.442Z,14.80
2023-05-05T00:42:52.411Z,14.80
2023-05-05T00:45:20.553Z,14.80
2023-05-05T00:47:54.738Z,14.80
2023-05-05T00:50:25.131Z,14.80
2023-05-05T00:52:58.837Z,14.80
2023-05-05T00:55:26.187Z,14.80
2023-05-05T00:57:53.391Z,14.80
2023-05-05T01:00:20.227Z,14.80
2023-05-05T01:02:47.109Z,14.80
2023-05-05T01:05:16.246Z,14.80
2023-05-05T01:08:15.245Z,14.80
2023-05-05T01:10:52.270Z,14.80
2023-05-05T01:14:05.931Z,14.80
2023-05-05T01:16:37.851Z,14.80
2023-05-05T01:19:28.829Z,14.70
2023-05-05T01:22:03.867Z,14.70
2023-05-05T01:25:07.233Z,14.70
2023-05-05T01:28:03.582Z,14.70
2023-05-05T01:31:06.535Z,14.70
2023-05-05T01:33:48.977Z,14.70
2023-05-05T01:36:31.969Z,14.60
2023-05-05T01:39:02.652Z,14.60
2023-05-05T01:41:45.348Z,14.60
2023-05-05T01:44:16.506Z,14.50
2023-05-05T01:46:43.237Z,14.50
2023-05-05T01:49:12.337Z,14.60
2023-05-05T01:51:41.132Z,14.50
2023-05-05T01:54:09.719Z,14.50
2023-05-05T01:56:40.701Z,14.40
2023-05-05T01:59:08.736Z,14.40
2023-05-05T02:01:40.781Z,14.40
2023-05-05T02:04:11.918Z,14.40
2023-05-05T02:06:40.945Z,14.40
2023-05-05T02:09:12.803Z,14.30
2023-05-05T02:11:40.642Z,14.20
2023-05-05T02:14:10.030Z,14.30
2023-05-05T02:16:38.657Z,14.30
2023-05-05T02:19:06.134Z,14.20
2023-05-05T02:21:34.195Z,14.20
2023-05-05T02:24:01.517Z,14.20
2023-05-05T02:26:32.099Z,14.20
2023-05-05T02:29:17.437Z,14.20
2023-05-05T02:31:52.616Z,14.10
2023-05-05T02:34:26.583Z,14.10
2023-05-05T02:36:58.435Z,14.10
2023-05-05T02:39:36.779Z,14.10
2023-05-05T02:42:06.027Z,14.10
2023-05-05T02:44:35.937Z,14.00
2023-05-05T02:47:04.868Z,14.10
2023-05-05T02:49:31.835Z,14.00
2023-05-05T02:51:58.567Z,14.10
2023-05-05T02:54:26.332Z,14.00
2023-05-05T02:56:56.175Z,14.10
2023-05-05T02:59:49.446Z,14.00
2023-05-05T03:02:32.085Z,14.00
2023-05-05T03:05:22.817Z,14.00
2023-05-05T03:08:10.803Z,13.90
2023-05-05T03:10:48.134Z,14.00
2023-05-05T03:13:20.220Z,13.90
2023-05-05T03:15:52.401Z,13.90
2023-05-05T03:18:22.672Z,13.90
2023-05-05T03:20:51.016Z,13.90
2023-05-05T03:23:22.765Z,13.90
2023-05-05T03:25:50.115Z,13.90
2023-05-05T03:28:17.889Z,13.90
2023-05-05T03:30:44.760Z,13.90
2023-05-05T03:33:12.022Z,13.90
2023-05-05T03:35:38.770Z,13.90
2023-05-05T03:38:05.734Z,13.80
2023-05-05T03:40:43.636Z,13.80
2023-05-05T03:43:11.305Z,13.70
2023-05-05T03:45:38.331Z,13.90
2023-05-05T03:48:06.081Z,13.80
2023-05-05T03:50:32.956Z,13.80
2023-05-05T03:52:59.721Z,13.70
2023-05-05T03:55:26.510Z,13.70
2023-05-05T03:57:53.409Z,13.70
2023-05-05T04:00:20.459Z,13.70
2023-05-05T04:02:47.222Z,13.70
2023-05-05T04:05:14.025Z,13.70
2023-05-05T04:07:40.808Z,13.70
2023-05-05T04:10:08.780Z,13.70
2023-05-05T04:12:35.743Z,13.60
2023-05-05T04:15:02.534Z,13.60
2023-05-05T04:17:29.417Z,13.60
2023-05-05T04:19:56.284Z,13.60
2023-05-05T04:22:23.036Z,13.60
2023-05-05T04:24:49.773Z,13.60
2023-05-05T04:27:16.560Z,13.60
2023-05-05T04:29:43.316Z,13.50
2023-05-05T04:32:10.049Z,13.50
2023-05-05T04:34:36.991Z,13.50
2023-05-05T04:37:03.773Z,13.50
2023-05-05T04:39:30.578Z,13.50
2023-05-05T04:41:57.349Z,13.50
2023-05-05T04:44:24.065Z,13.50
2023-05-05T04:46:50.906Z,13.50
2023-05-05T04:49:17.796Z,13.50
2023-05-05T04:51:44.598Z,13.50
2023-05-05T04:54:11.316Z,13.60
2023-05-05T04:56:38.177Z,13.60
2023-05-05T04:59:04.944Z,13.60
2023-05-05T05:01:31.818Z,13.60
2023-05-05T05:03:58.954Z,13.60
2023-05-05T05:06:25.817Z,13.60
2023-05-05T05:08:52.622Z,13.60
2023-05-05T05:11:19.580Z,13.70
2023-05-05T05:13:46.351Z,13.70
2023-05-05T05:16:13.393Z,13.70
2023-05-05T05:18:40.180Z,13.70
2023-05-05T05:21:07.191Z,13.80
2023-05-05T05:23:33.942Z,13.80
2023-05-05T05:26:00.863Z,13.80
2023-05-05T05:28:27.804Z,13.90
2023-05-05T05:30:54.541Z,14.00
2023-05-05T05:33:21.636Z,14.20
2023-05-05T05:35:48.386Z,14.30
2023-05-05T05:38:15.187Z,14.50
2023-05-05T05:40:42.230Z,14.60
2023-05-05T05:43:09.012Z,14.80
2023-05-05T05:45:35.853Z,15.00
2023-05-05T05:48:02.662Z,15.10
2023-05-05T05:50:29.401Z,15.30
2023-05-05T05:52:56.216Z,15.60
2023-05-05T05:55:24.145Z,15.60
2023-05-05T05:57:50.873Z,15.80
2023-05-05T06:00:17.978Z,15.90
2023-05-05T06:02:44.824Z,16.00
2023-05-05T06:05:13.029Z,16.00
2023-05-05T06:07:39.862Z,16.20
2023-05-05T06:10:22.928Z,16.30
2023-05-05T06:12:53.880Z,16.30
2023-05-05T06:15:20.708Z,16.40
2023-05-05T06:17:47.531Z,16.50
2023-05-05T06:20:14.331Z,16.60
2023-05-05T06:22:41.084Z,16.70
2023-05-05T06:25:08.340Z,16.70
2023-05-05T06:27:35.159Z,16.90
2023-05-05T06:30:02.234Z,17.00
2023-05-05T06:32:29.131Z,17.10
2023-05-05T06:34:55.999Z,17.10
2023-05-05T06:37:22.810Z,17.10
2023-05-05T06:39:49.536Z,17.10
2023-05-05T06:42:16.264Z,17.10
2023-05-05T06:44:43.013Z,17.10
2023-05-05T06:47:09.756Z,17.10
2023-05-05T06:49:36.547Z,17.10
2023-05-05T06:52:03.364Z,17.20
2023-05-05T06:54:30.095Z,17.20
2023-05-05T06:56:59.324Z,17.20
2023-05-05T06:59:26.703Z,17.20
2023-05-05T07:01:53.455Z,17.20
2023-05-05T07:04:21.309Z,17.30
2023-05-05T07:06:48.092Z,17.20
2023-05-05T07:09:16.904Z,17.20
2023-05-05T07:14:11.377Z,17.30
2023-05-05T07:16:38.909Z,17.30
2023-05-05T07:26:32.803Z,17.30
2023-05-05T07:28:59.526Z,17.40
2023-05-05T07:31:26.556Z,17.30
2023-05-05T07:33:53.773Z,17.40
2023-05-05T07:36:20.959Z,17.40
2023-05-05T07:38:47.878Z,17.40
2023-05-05T07:41:14.692Z,17.40
2023-05-05T07:43:44.501Z,17.50
2023-05-05T07:46:12.141Z,17.50
2023-05-05T07:48:41.585Z,17.50
2023-05-05T07:51:09.403Z,17.50
2023-05-05T07:53:36.628Z,17.50
2023-05-05T07:56:03.632Z,17.60
2023-05-05T07:58:30.489Z,17.60
2023-05-05T08:00:57.305Z,17.60
2023-05-05T08:03:24.856Z,17.70
2023-05-05T08:05:54.605Z,17.70
2023-05-05T08:08:24.740Z,17.70
2023-05-05T08:10:53.095Z,20.50
2023-05-05T08:13:20.430Z,17.80
2023-05-05T08:15:47.386Z,17.80
2023-05-05T08:18:14.891Z,17.90
2023-05-05T08:20:41.801Z,19.20
2023-05-05T08:23:08.590Z,17.90
2023-05-05T08:25:35.597Z,18.00
2023-05-05T08:28:02.517Z,18.10
2023-05-05T08:30:29.639Z,18.10
2023-05-05T08:32:56.718Z,18.20
2023-05-05T08:35:23.748Z,18.30
2023-05-05T08:37:53.557Z,18.30
2023-05-05T08:40:25.161Z,18.30
2023-05-05T08:42:51.966Z,18.40
2023-05-05T08:45:18.698Z,18.50
2023-05-05T08:47:46.295Z,18.60
2023-05-05T08:50:13.893Z,18.60
2023-05-05T08:52:53.720Z,18.70
2023-05-05T08:55:26.316Z,18.90
2023-05-05T08:57:57.276Z,18.80
2023-05-05T09:00:26.940Z,19.00
2023-05-05T09:02:58.267Z,19.10
2023-05-05T09:05:26.454Z,19.10
2023-05-05T09:07:54.024Z,19.30
2023-05-05T09:10:20.990Z,19.30
2023-05-05T09:12:50.376Z,19.40
2023-05-05T09:15:17.158Z,19.50
2023-05-05T09:17:44.693Z,19.50
2023-05-05T09:20:14.137Z,19.20
2023-05-05T09:22:47.842Z,19.70
2023-05-05T09:25:17.254Z,19.90
2023-05-05T09:27:47.501Z,19.90
2023-05-05T09:30:25.106Z,20.00
2023-05-05T09:32:54.589Z,20.20
2023-05-05T09:35:23.281Z,20.30
2023-05-05T09:37:50.059Z,20.30
2023-05-05T09:40:19.740Z,20.30
2023-05-05T09:42:47.557Z,20.40
2023-05-05T09:45:20.391Z,20.40
2023-05-05T09:47:48.331Z,20.50
2023-05-05T09:50:18.798Z,18.10
2023-05-05T09:53:01.787Z,20.60
2023-05-05T09:55:30.803Z,20.70
2023-05-05T09:58:17.078Z,20.80
2023-05-05T10:00:43.889Z,20.80
2023-05-05T10:03:10.707Z,20.80
2023-05-05T10:05:51.924Z,20.90
2023-05-05T10:08:34.240Z,21.00
2023-05-05T10:11:06.872Z,21.00
2023-05-05T10:13:41.869Z,21.10
2023-05-05T10:16:12.246Z,21.10
2023-05-05T10:18:46.335Z,21.30
2023-05-05T10:21:19.840Z,21.20
2023-05-05T10:23:57.889Z,21.20
2023-05-05T10:26:27.543Z,21.30
2023-05-05T10:29:02.486Z,21.30
2023-05-05T10:31:54.003Z,21.40
2023-05-05T10:34:53.207Z,21.40
2023-05-05T10:37:21.443Z,21.50
2023-05-05T10:39:50.163Z,21.50
2023-05-05T10:42:19.700Z,21.70
2023-05-05T10:44:48.509Z,21.70
2023-05-05T10:47:18.496Z,21.70
2023-05-05T10:49:55.722Z,21.80
2023-05-05T10:52:37.040Z,21.80
2023-05-05T10:55:32.738Z,21.90
2023-05-05T10:57:59.543Z,21.90
2023-05-05T11:00:50.292Z,21.90
2023-05-05T11:03:20.077Z,22.00
2023-05-05T11:06:07.975Z,22.00
2023-05-05T11:08:40.210Z,22.00
2023-05-05T11:11:08.405Z,22.00
2023-05-05T11:13:35.140Z,22.00
2023-05-05T11:16:05.376Z,22.10
2023-05-05T11:18:37.075Z,22.10
2023-05-05T11:21:15.905Z,22.10
2023-05-05T11:23:51.406Z,22.10
2023-05-05T11:26:50.099Z,22.20
2023-05-05T11:29:17.170Z,22.20
2023-05-05T11:31:43.884Z,22.20
2023-05-05T11:34:28.817Z,22.30
2023-05-05T11:37:03.355Z,22.30
2023-05-05T11:39:43.125Z,22.40
2023-05-05T11:42:26.640Z,22.40
2023-05-05T11:44:54.719Z,22.50
2023-05-05T11:47:21.366Z,22.50
2023-05-05T11:49:50.081Z,22.60
2023-05-05T11:52:16.872Z,22.70
2023-05-05T11:54:48.925Z,22.70
2023-05-05T11:57:19.418Z,22.70
2023-05-05T12:00:01.241Z,22.70
2023-05-05T12:02:29.981Z,22.80
2023-05-05T12:04:59.180Z,22.80
2023-05-05T12:07:29.110Z,22.80
2023-05-05T12:09:56.138Z,22.80
2023-05-05T12:12:40.896Z,22.90
2023-05-05T12:15:09.226Z,22.90
2023-05-05T12:17:43.727Z,23.00
2023-05-05T12:20:12.037Z,23.00
2023-05-05T12:22:40.023Z,23.00
2023-05-05T12:25:08.393Z,23.10
2023-05-05T12:27:35.583Z,23.00
2023-05-05T12:30:18.050Z,23.10
2023-05-05T12:32:46.032Z,23.20
2023-05-05T12:35:13.648Z,23.20
2023-05-05T12:37:40.929Z,23.20
2023-05-05T12:40:28.194Z,23.10
2023-05-05T12:42:54.918Z,23.20
2023-05-05T12:45:21.928Z,23.20
2023-05-05T12:47:48.737Z,23.20
2023-05-05T12:50:28.992Z,23.20
2023-05-05T12:52:55.870Z,23.20
2023-05-05T12:55:37.357Z,23.20
2023-05-05T12:58:04.706Z,23.30
2023-05-05T13:00:31.742Z,23.10
2023-05-05T13:02:58.814Z,23.20
2023-05-05T13:05:33.932Z,23.20
2023-05-05T13:08:00.689Z,23.20
2023-05-05T13:10:28.436Z,23.20
2023-05-05T13:12:56.901Z,23.10
2023-05-05T13:15:27.605Z,23.10
2023-05-05T13:18:01.412Z,23.20
2023-05-05T13:20:28.314Z,23.20
2023-05-05T13:22:55.133Z,23.20
2023-05-05T13:25:21.886Z,23.20
2023-05-05T13:30:15.851Z,23.20
2023-05-05T13:32:42.695Z,23.20
2023-05-05T13:35:10.043Z,23.20
2023-05-05T13:37:37.067Z,23.20
2023-05-05T13:40:04.216Z,22.80
2023-05-05T13:42:30.994Z,23.20
2023-05-05T13:44:57.735Z,23.30
2023-05-05T13:47:24.607Z,23.30
2023-05-05T13:49:51.427Z,23.30
2023-05-05T13:54:45.365Z,23.30
2023-05-05T13:57:12.370Z,23.20
2023-05-05T13:59:39.140Z,23.30
2023-05-05T14:02:06.405Z,23.30
2023-05-05T14:04:33.300Z,23.30
2023-05-05T14:07:01.070Z,23.30
2023-05-05T14:09:27.826Z,23.30
2023-05-05T14:11:54.581Z,23.30
2023-05-05T14:14:21.637Z,23.30
2023-05-05T14:16:50.242Z,23.30
2023-05-05T14:19:17.250Z,23.30
2023-05-05T14:21:44.028Z,23.30
2023-05-05T14:24:10.949Z,23.30
2023-05-05T14:26:37.684Z,23.30
2023-05-05T14:31:31.774Z,23.30
2023-05-05T14:33:58.544Z,23.30
2023-05-05T14:36:25.320Z,23.30
2023-05-05T14:38:52.268Z,23.40
2023-05-05T14:41:19.759Z,23.30
2023-05-05T14:43:46.495Z,23.20
2023-05-05T14:46:13.430Z,23.40
2023-05-05T14:48:40.228Z,23.30
2023-05-05T14:51:06.957Z,23.30
2023-05-05T14:53:34.696Z,23.30
2023-05-05T14:56:02.325Z,23.40
2023-05-05T14:58:29.067Z,23.30
2023-05-05T15:00:55.900Z,23.30
2023-05-05T15:03:22.715Z,23.30
2023-05-05T15:05:49.517Z,23.30
2023-05-05T15:08:19.263Z,23.30
2023-05-05T15:10:46.655Z,23.20
2023-05-05T15:13:13.789Z,23.20
2023-05-05T15:15:41.140Z,23.20
2023-05-05T15:18:07.890Z,23.10
2023-05-05T15:20:34.862Z,23.10
2023-05-05T15:23:01.672Z,22.60
2023-05-05T15:25:28.503Z,23.10
2023-05-05T15:27:55.258Z,23.10
2023-05-05T15:30:22.020Z,23.20
2023-05-05T15:32:48.870Z,23.20
2023-05-05T15:35:15.619Z,23.20
2023-05-05T15:37:42.603Z,23.20
2023-05-05T15:40:10.039Z,23.30
2023-05-05T15:42:37.401Z,23.30
2023-05-05T15:45:05.128Z,24.30
2023-05-05T15:47:31.893Z,23.30
2023-05-05T15:49:58.665Z,23.30
2023-05-05T15:52:25.440Z,23.30
2023-05-05T15:54:52.211Z,23.30
2023-05-05T15:57:19.062Z,23.30
2023-05-05T15:59:45.895Z,23.20
2023-05-05T16:02:12.717Z,23.10
2023-05-05T16:04:39.490Z,23.10
2023-05-05T16:07:06.266Z,23.00
2023-05-05T16:09:33.144Z,23.00
2023-05-05T16:11:59.860Z,23.00
2023-05-05T16:14:27.933Z,22.90
2023-05-05T16:16:55.751Z,22.90
2023-05-05T16:19:23.363Z,22.90
2023-05-05T16:21:50.150Z,22.80
2023-05-05T16:24:17.049Z,22.80
2023-05-05T16:26:44.494Z,22.80
2023-05-05T16:29:12.399Z,22.70
2023-05-05T16:31:39.515Z,22.60
2023-05-05T16:34:06.986Z,22.60
2023-05-05T16:36:33.809Z,22.50
2023-05-05T16:39:00.705Z,22.50
2023-05-05T16:41:27.578Z,22.40
2023-05-05T16:43:54.369Z,22.40
2023-05-05T16:46:21.289Z,22.30
2023-05-05T16:48:48.129Z,22.30
2023-05-05T16:51:14.871Z,22.30
2023-05-05T16:53:41.742Z,22.30
2023-05-05T16:56:12.786Z,22.30
2023-05-05T16:58:40.290Z,22.20
2023-05-05T17:01:07.023Z,22.20
2023-05-05T17:03:33.831Z,22.20
2023-05-05T17:06:00.816Z,22.10
2023-05-05T17:08:27.661Z,22.10
2023-05-05T17:10:54.387Z,22.10
2023-05-05T17:13:23.018Z,22.00
2023-05-05T17:15:50.020Z,22.00
2023-05-05T17:18:18.441Z,21.90
2023-05-05T17:20:46.167Z,21.90
2023-05-05T17:23:13.040Z,21.80
2023-05-05T17:25:39.798Z,21.70
2023-05-05T17:28:07.476Z,21.70
2023-05-05T17:30:34.267Z,21.70
2023-05-05T17:33:01.171Z,21.60
2023-05-05T17:35:28.104Z,21.50
2023-05-05T17:37:54.873Z,21.60
2023-05-05T17:40:21.854Z,21.50
2023-05-05T17:42:48.611Z,21.40
2023-05-05T17:45:15.468Z,21.40
2023-05-05T17:47:42.370Z,21.40
2023-05-05T17:50:11.006Z,21.30
2023-05-05T17:52:38.029Z,21.30
2023-05-05T17:55:05.210Z,21.20
2023-05-05T17:57:32.002Z,21.20
2023-05-05T17:59:58.724Z,21.10
2023-05-05T18:02:25.654Z,21.10
2023-05-05T18:04:52.484Z,21.00
2023-05-05T18:07:19.206Z,20.80
2023-05-05T18:09:45.922Z,20.80
2023-05-05T18:12:12.712Z,20.70
2023-05-05T18:14:39.501Z,20.70
2023-05-05T18:17:06.273Z,20.60
2023-05-05T18:19:33.032Z,20.50
2023-05-05T18:21:59.801Z,20.50
2023-05-05T18:24:27.478Z,20.50
2023-05-05T18:26:54.311Z,20.50
2023-05-05T18:29:22.111Z,20.30
2023-05-05T18:31:52.032Z,20.30
2023-05-05T18:34:20.466Z,20.30
2023-05-05T18:36:48.167Z,20.20
2023-05-05T18:39:15.197Z,20.20
2023-05-05T18:41:42.104Z,20.10
2023-05-05T18:44:08.893Z,20.00
2023-05-05T18:46:35.672Z,19.90
2023-05-05T18:49:03.558Z,19.90
2023-05-05T18:51:30.682Z,19.90
2023-05-05T18:53:57.681Z,19.80
2023-05-05T18:56:24.423Z,19.80
2023-05-05T18:58:51.195Z,19.70
2023-05-05T19:01:17.989Z,19.70
2023-05-05T19:03:48.290Z,19.60
2023-05-05T19:06:15.976Z,19.60
2023-05-05T19:08:43.994Z,19.50
2023-05-05T19:11:10.835Z,19.50
2023-05-05T19:16:11.275Z,19.40
2023-05-05T19:18:38.819Z,19.40
2023-05-05T19:21:05.916Z,19.30
2023-05-05T19:23:33.287Z,19.20
2023-05-05T19:26:00.127Z,19.20
2023-05-05T19:28:26.963Z,19.20
2023-05-05T19:30:53.785Z,19.10
2023-05-05T19:33:20.631Z,19.10
2023-05-05T19:35:47.429Z,19.00
2023-05-05T19:38:14.299Z,19.00
2023-05-05T19:40:41.432Z,18.90
2023-05-05T19:43:08.192Z,18.90
2023-05-05T19:45:35.137Z,18.90
2023-05-05T19:48:02.704Z,18.80
2023-05-05T19:50:30.584Z,18.80
2023-05-05T19:52:57.859Z,18.70
2023-05-05T19:55:25.042Z,18.70
2023-05-05T19:57:51.773Z,18.60
2023-05-05T20:00:19.615Z,18.60
2023-05-05T20:02:47.245Z,18.50
2023-05-05T20:05:16.251Z,18.50
2023-05-05T20:07:44.266Z,18.40
2023-05-05T20:10:13.247Z,18.30
2023-05-05T20:12:47.607Z,18.30
2023-05-05T20:15:20.599Z,18.30
2023-05-05T20:17:48.076Z,18.30
2023-05-05T20:20:22.513Z,18.20
2023-05-05T20:22:49.659Z,18.20
2023-05-05T20:25:16.685Z,18.10
2023-05-05T20:27:45.257Z,18.10
2023-05-05T20:30:12.559Z,18.10
2023-05-05T20:32:39.649Z,18.00
2023-05-05T20:35:07.298Z,17.90
2023-05-05T20:37:34.237Z,17.90
2023-05-05T20:40:01.085Z,17.80
2023-05-05T20:42:28.025Z,17.90
2023-05-05T20:44:54.982Z,17.80
2023-05-05T20:47:21.743Z,17.80
2023-05-05T20:49:48.571Z,17.80
2023-05-05T20:52:15.639Z,17.70
2023-05-05T20:54:42.407Z,17.70
2023-05-05T20:57:09.250Z,17.70
2023-05-05T20:59:35.996Z,17.60
2023-05-05T21:02:02.783Z,17.60
2023-05-05T21:04:29.655Z,17.60
2023-05-05T21:06:57.436Z,17.50
2023-05-05T21:09:24.364Z,17.50
2023-05-05T21:11:51.135Z,17.50
2023-05-05T21:16:45.104Z,17.40
2023-05-05T21:19:11.957Z,17.40
2023-05-05T21:21:38.733Z,17.40
2023-05-05T21:24:07.917Z,17.40
2023-05-05T21:26:35.094Z,17.30
2023-05-05T21:29:01.877Z,17.30
2023-05-05T21:31:28.627Z,17.30
2023-05-05T21:33:55.471Z,17.20
2023-05-05T21:36:22.289Z,17.20
2023-05-05T21:38:49.478Z,17.10
2023-05-05T21:41:16.721Z,17.20
2023-05-05T21:43:43.581Z,17.10
2023-05-05T21:46:10.383Z,17.10
2023-05-05T21:48:38.977Z,17.10
2023-05-05T21:51:06.732Z,17.10
2023-05-05T21:53:33.532Z,17.10
2023-05-05T21:56:00.926Z,17.00
2023-05-05T21:58:27.730Z,17.00
2023-05-05T22:00:54.560Z,17.00
2023-05-05T22:03:21.475Z,17.00
2023-05-05T22:05:48.241Z,17.00
2023-05-05T22:08:15.030Z,17.00
2023-05-05T22:10:41.839Z,16.90
2023-05-05T22:13:10.412Z,16.90
2023-05-05T22:15:46.212Z,16.90
2023-05-05T22:18:14.037Z,16.90
2023-05-05T22:20:40.912Z,16.80
2023-05-05T22:23:07.719Z,16.80
2023-05-05T22:25:34.457Z,16.80
2023-05-05T22:28:01.250Z,16.80
2023-05-05T22:30:28.007Z,16.80
2023-05-05T22:32:55.226Z,16.80
2023-05-05T22:35:22.181Z,16.80
2023-05-05T22:37:49.010Z,16.80
2023-05-05T22:40:15.850Z,16.80
2023-05-05T22:42:42.604Z,16.70
2023-05-05T22:45:10.378Z,16.70
2023-05-05T22:47:37.521Z,16.70
2023-05-05T22:50:04.556Z,16.70
2023-05-05T22:52:31.490Z,16.70
2023-05-05T22:57:25.624Z,16.60
2023-05-05T22:59:52.542Z,16.60
2023-05-05T23:02:19.410Z,16.60
2023-05-05T23:04:46.254Z,16.40
2023-05-05T23:07:13.523Z,16.50
2023-05-05T23:09:40.857Z,16.40
2023-05-05T23:12:07.676Z,16.40
2023-05-05T23:14:35.270Z,16.30
2023-05-05T23:17:02.202Z,16.30
2023-05-05T23:19:32.007Z,16.20
2023-05-05T23:21:59.696Z,16.20
2023-05-05T23:24:27.694Z,16.10
2023-05-05T23:26:56.647Z,16.10
2023-05-05T23:29:23.391Z,16.00
2023-05-05T23:31:50.151Z,16.10
2023-05-05T23:34:17.186Z,15.90
2023-05-05T23:36:43.944Z,15.90
2023-05-05T23:39:11.050Z,15.80
2023-05-05T23:41:37.815Z,15.80
2023-05-05T23:44:04.632Z,15.70
2023-05-05T23:46:31.461Z,15.70
2023-05-05T23:48:58.198Z,15.60
2023-05-05T23:51:25.177Z,15.50
2023-05-05T23:56:20.284Z,15.50
2023-05-05T23:58:47.044Z,15.40
